sensor_id;sensor_type;location;lat;lon;timestamp;P1;durP1;ratioP1;P2;durP2;ratioP2
22774;SDS011;11554;51.106;3.684;2023-03-14T00:00:00;7.70;;;1.30;;
22774;SDS011;11554;51.106;3.684;2023-03-14T00:05:00;7.70;;;1.30;;
22774;SDS011;11554;51.106;3.684;2023-03-14T00:10:02;6.90;;;1.50;;
22774;SDS011;11554;51.106;3.684;2023-03-14T00:15:00;6.90;;;1.50;;
22774;SDS011;11554;51.106;3.684;2023-03-14T00:20:01;8.80;;;1.30;;
22774;SDS011;11554;51.106;3.684;2023-03-14T00:25:00;8.80;;;1.30;;
22774;SDS011;11554;51.106;3.684;2023-03-14T00:30:00;7.00;;;1.50;;
22774;SDS011;11554;51.106;3.684;2023-03-14T00:35:00;7.00;;;1.50;;
22774;SDS011;11554;51.106;3.684;2023-03-14T00:40:00;6.20;;;1.20;;
22774;SDS011;11554;51.106;3.684;2023-03-14T00:45:00;6.20;;;1.20;;
22774;SDS011;11554;51.106;3.684;2023-03-14T00:50:00;10.10;;;1.70;;
22774;SDS011;11554;51.106;3.684;2023-03-14T00:55:00;10.10;;;1.70;;
22774;SDS011;11554;51.106;3.684;2023-03-14T01:00:00;7.10;;;1.70;;
22774;SDS011;11554;51.106;3.684;2023-03-14T01:05:00;7.10;;;1.70;;
22774;SDS011;11554;51.106;3.684;2023-03-14T01:10:00;13.60;;;2.10;;
22774;SDS011;11554;51.106;3.684;2023-03-14T01:15:00;13.60;;;2.10;;
22774;SDS011;11554;51.106;3.684;2023-03-14T01:20:01;11.40;;;2.10;;
22774;SDS011;11554;51.106;3.684;2023-03-14T01:25:00;11.40;;;2.10;;
22774;SDS011;11554;51.106;3.684;2023-03-14T01:30:00;10.40;;;2.00;;
22774;SDS011;11554;51.106;3.684;2023-03-14T01:35:00;10.40;;;2.00;;
22774;SDS011;11554;51.106;3.684;2023-03-14T01:40:00;10.10;;;2.00;;
22774;SDS011;11554;51.106;3.684;2023-03-14T01:45:03;10.10;;;2.00;;
22774;SDS011;11554;51.106;3.684;2023-03-14T01:50:04;13.80;;;2.00;;
22774;SDS011;11554;51.106;3.684;2023-03-14T01:55:04;13.80;;;2.00;;
22774;SDS011;11554;51.106;3.684;2023-03-14T02:00:04;9.80;;;1.60;;
22774;SDS011;11554;51.106;3.684;2023-03-14T02:05:00;9.80;;;1.60;;
22774;SDS011;11554;51.106;3.684;2023-03-14T02:10:01;9.10;;;1.70;;
22774;SDS011;11554;51.106;3.684;2023-03-14T02:15:00;9.10;;;1.70;;
22774;SDS011;11554;51.106;3.684;2023-03-14T02:20:10;7.50;;;1.40;;
22774;SDS011;11554;51.106;3.684;2023-03-14T02:25:07;7.50;;;1.40;;
22774;SDS011;11554;51.106;3.684;2023-03-14T02:30:03;6.20;;;1.40;;
22774;SDS011;11554;51.106;3.684;2023-03-14T02:35:04;6.20;;;1.40;;
22774;SDS011;11554;51.106;3.684;2023-03-14T02:40:00;6.10;;;1.30;;
22774;SDS011;11554;51.106;3.684;2023-03-14T02:50:05;4.60;;;0.90;;
22774;SDS011;11554;51.106;3.684;2023-03-14T02:55:00;4.60;;;0.90;;
22774;SDS011;11554;51.106;3.684;2023-03-14T03:00:00;4.70;;;1.10;;
22774;SDS011;11554;51.106;3.684;2023-03-14T03:05:00;4.70;;;1.10;;
22774;SDS011;11554;51.106;3.684;2023-03-14T03:10:00;3.60;;;0.90;;
22774;SDS011;11554;51.106;3.684;2023-03-14T03:15:00;3.60;;;0.90;;
22774;SDS011;11554;51.106;3.684;2023-03-14T03:20:00;5.00;;;1.30;;
22774;SDS011;11554;51.106;3.684;2023-03-14T03:25:00;5.00;;;1.30;;
22774;SDS011;11554;51.106;3.684;2023-03-14T03:30:00;7.00;;;1.20;;
22774;SDS011;11554;51.106;3.684;2023-03-14T03:35:01;7.00;;;1.20;;
22774;SDS011;11554;51.106;3.684;2023-03-14T03:40:01;4.70;;;1.00;;
22774;SDS011;11554;51.106;3.684;2023-03-14T03:45:01;4.70;;;1.00;;
22774;SDS011;11554;51.106;3.684;2023-03-14T03:50:00;8.50;;;1.20;;
22774;SDS011;11554;51.106;3.684;2023-03-14T03:55:00;8.50;;;1.20;;
22774;SDS011;11554;51.106;3.684;2023-03-14T04:00:00;7.40;;;1.80;;
22774;SDS011;11554;51.106;3.684;2023-03-14T04:05:00;7.40;;;1.80;;
22774;SDS011;11554;51.106;3.684;2023-03-14T04:10:00;6.10;;;2.00;;
22774;SDS011;11554;51.106;3.684;2023-03-14T04:15:00;6.10;;;2.00;;
22774;SDS011;11554;51.106;3.684;2023-03-14T04:20:00;7.00;;;2.10;;
22774;SDS011;11554;51.106;3.684;2023-03-14T04:25:00;7.00;;;2.10;;
22774;SDS011;11554;51.106;3.684;2023-03-14T04:30:00;6.80;;;2.20;;
22774;SDS011;11554;51.106;3.684;2023-03-14T04:35:00;6.80;;;2.20;;
22774;SDS011;11554;51.106;3.684;2023-03-14T04:40:00;8.80;;;2.00;;
22774;SDS011;11554;51.106;3.684;2023-03-14T04:45:00;8.80;;;2.00;;
22774;SDS011;11554;51.106;3.684;2023-03-14T04:50:00;7.20;;;2.00;;
22774;SDS011;11554;51.106;3.684;2023-03-14T04:55:00;7.20;;;2.00;;
22774;SDS011;11554;51.106;3.684;2023-03-14T05:00:00;6.20;;;1.80;;
22774;SDS011;11554;51.106;3.684;2023-03-14T05:05:00;6.20;;;1.80;;
22774;SDS011;11554;51.106;3.684;2023-03-14T05:10:00;5.60;;;2.10;;
22774;SDS011;11554;51.106;3.684;2023-03-14T05:15:00;5.60;;;2.10;;
22774;SDS011;11554;51.106;3.684;2023-03-14T05:20:00;5.90;;;2.10;;
22774;SDS011;11554;51.106;3.684;2023-03-14T05:25:00;5.90;;;2.10;;
22774;SDS011;11554;51.106;3.684;2023-03-14T05:30:00;4.50;;;2.20;;
22774;SDS011;11554;51.106;3.684;2023-03-14T05:35:00;4.50;;;2.20;;
22774;SDS011;11554;51.106;3.684;2023-03-14T05:40:00;7.50;;;2.00;;
22774;SDS011;11554;51.106;3.684;2023-03-14T05:45:00;7.50;;;2.00;;
22774;SDS011;11554;51.106;3.684;2023-03-14T05:50:00;6.50;;;2.60;;
22774;SDS011;11554;51.106;3.684;2023-03-14T05:55:00;6.50;;;2.60;;
22774;SDS011;11554;51.106;3.684;2023-03-14T06:00:00;4.40;;;2.00;;
22774;SDS011;11554;51.106;3.684;2023-03-14T06:05:00;4.40;;;2.00;;
22774;SDS011;11554;51.106;3.684;2023-03-14T06:10:00;5.20;;;1.50;;
22774;SDS011;11554;51.106;3.684;2023-03-14T06:15:00;5.20;;;1.50;;
22774;SDS011;11554;51.106;3.684;2023-03-14T06:20:00;4.50;;;1.50;;
22774;SDS011;11554;51.106;3.684;2023-03-14T06:25:00;4.50;;;1.50;;
22774;SDS011;11554;51.106;3.684;2023-03-14T06:30:00;9.00;;;1.70;;
22774;SDS011;11554;51.106;3.684;2023-03-14T06:35:00;9.00;;;1.70;;
22774;SDS011;11554;51.106;3.684;2023-03-14T06:40:00;3.90;;;1.20;;
22774;SDS011;11554;51.106;3.684;2023-03-14T06:45:00;3.90;;;1.20;;
22774;SDS011;11554;51.106;3.684;2023-03-14T06:50:00;7.60;;;2.40;;
22774;SDS011;11554;51.106;3.684;2023-03-14T06:55:00;7.60;;;2.40;;
22774;SDS011;11554;51.106;3.684;2023-03-14T07:00:00;5.50;;;2.00;;
22774;SDS011;11554;51.106;3.684;2023-03-14T07:05:00;5.50;;;2.00;;
22774;SDS011;11554;51.106;3.684;2023-03-14T07:10:00;5.70;;;3.10;;
22774;SDS011;11554;51.106;3.684;2023-03-14T07:15:00;5.70;;;3.10;;
22774;SDS011;11554;51.106;3.684;2023-03-14T07:20:00;3.80;;;1.60;;
22774;SDS011;11554;51.106;3.684;2023-03-14T07:25:00;3.80;;;1.60;;
22774;SDS011;11554;51.106;3.684;2023-03-14T07:30:00;5.80;;;2.10;;
22774;SDS011;11554;51.106;3.684;2023-03-14T07:35:00;5.80;;;2.10;;
22774;SDS011;11554;51.106;3.684;2023-03-14T07:40:00;4.20;;;1.70;;
22774;SDS011;11554;51.106;3.684;2023-03-14T07:45:00;4.20;;;1.70;;
22774;SDS011;11554;51.106;3.684;2023-03-14T07:50:00;4.40;;;2.20;;
22774;SDS011;11554;51.106;3.684;2023-03-14T07:55:00;4.40;;;2.20;;
22774;SDS011;11554;51.106;3.684;2023-03-14T08:00:00;5.90;;;2.80;;
22774;SDS011;11554;51.106;3.684;2023-03-14T08:05:00;5.90;;;2.80;;
22774;SDS011;11554;51.106;3.684;2023-03-14T08:10:00;8.00;;;2.60;;
22774;SDS011;11554;51.106;3.684;2023-03-14T08:15:00;8.00;;;2.60;;
22774;SDS011;11554;51.106;3.684;2023-03-14T08:20:00;6.20;;;2.20;;
22774;SDS011;11554;51.106;3.684;2023-03-14T08:25:00;6.20;;;2.20;;
22774;SDS011;11554;51.106;3.684;2023-03-14T08:30:01;3.90;;;2.30;;
22774;SDS011;11554;51.106;3.684;2023-03-14T08:35:00;3.90;;;2.30;;
22774;SDS011;11554;51.106;3.684;2023-03-14T08:40:00;6.10;;;3.20;;
22774;SDS011;11554;51.106;3.684;2023-03-14T08:45:00;6.10;;;3.20;;
22774;SDS011;11554;51.106;3.684;2023-03-14T08:50:00;4.60;;;1.70;;
22774;SDS011;11554;51.106;3.684;2023-03-14T08:55:00;4.60;;;1.70;;
22774;SDS011;11554;51.106;3.684;2023-03-14T09:00:00;6.00;;;2.70;;
22774;SDS011;11554;51.106;3.684;2023-03-14T09:05:00;6.00;;;2.70;;
22774;SDS011;11554;51.106;3.684;2023-03-14T09:10:00;6.50;;;3.10;;
22774;SDS011;11554;51.106;3.684;2023-03-14T09:15:00;6.50;;;3.10;;
22774;SDS011;11554;51.106;3.684;2023-03-14T09:20:01;7.90;;;2.60;;
22774;SDS011;11554;51.106;3.684;2023-03-14T09:25:00;7.90;;;2.60;;
22774;SDS011;11554;51.106;3.684;2023-03-14T09:30:00;9.50;;;2.50;;
22774;SDS011;11554;51.106;3.684;2023-03-14T09:35:00;9.50;;;2.50;;
22774;SDS011;11554;51.106;3.684;2023-03-14T09:40:00;9.00;;;1.90;;
22774;SDS011;11554;51.106;3.684;2023-03-14T09:45:03;9.00;;;1.90;;
22774;SDS011;11554;51.106;3.684;2023-03-14T09:50:00;5.70;;;1.50;;
22774;SDS011;11554;51.106;3.684;2023-03-14T09:55:03;5.70;;;1.50;;
22774;SDS011;11554;51.106;3.684;2023-03-14T10:00:04;3.30;;;0.80;;
22774;SDS011;11554;51.106;3.684;2023-03-14T10:05:00;3.30;;;0.80;;
22774;SDS011;11554;51.106;3.684;2023-03-14T10:10:00;4.70;;;1.10;;
22774;SDS011;11554;51.106;3.684;2023-03-14T10:15:03;4.70;;;1.10;;
22774;SDS011;11554;51.106;3.684;2023-03-14T10:20:00;5.60;;;1.00;;
22774;SDS011;11554;51.106;3.684;2023-03-14T10:25:02;5.60;;;1.00;;
22774;SDS011;11554;51.106;3.684;2023-03-14T10:30:02;4.40;;;1.20;;
22774;SDS011;11554;51.106;3.684;2023-03-14T10:35:07;4.40;;;1.20;;
22774;SDS011;11554;51.106;3.684;2023-03-14T10:40:02;6.00;;;1.30;;
22774;SDS011;11554;51.106;3.684;2023-03-14T10:45:02;6.00;;;1.30;;
22774;SDS011;11554;51.106;3.684;2023-03-14T10:50:22;6.20;;;1.30;;
22774;SDS011;11554;51.106;3.684;2023-03-14T10:55:03;6.20;;;1.30;;
22774;SDS011;11554;51.106;3.684;2023-03-14T11:00:00;10.50;;;1.90;;
22774;SDS011;11554;51.106;3.684;2023-03-14T11:05:08;10.50;;;1.90;;
22774;SDS011;11554;51.106;3.684;2023-03-14T11:10:04;12.00;;;2.10;;
22774;SDS011;11554;51.106;3.684;2023-03-14T11:15:03;12.00;;;2.10;;
22774;SDS011;11554;51.106;3.684;2023-03-14T11:20:14;11.70;;;2.10;;
22774;SDS011;11554;51.106;3.684;2023-03-14T11:25:12;11.70;;;2.10;;
22774;SDS011;11554;51.106;3.684;2023-03-14T11:30:12;16.20;;;2.30;;
22774;SDS011;11554;51.106;3.684;2023-03-14T11:35:03;16.20;;;2.30;;
22774;SDS011;11554;51.106;3.684;2023-03-14T11:40:05;14.80;;;2.30;;
22774;SDS011;11554;51.106;3.684;2023-03-14T11:45:00;14.80;;;2.30;;
22774;SDS011;11554;51.106;3.684;2023-03-14T11:50:03;15.40;;;2.70;;
22774;SDS011;11554;51.106;3.684;2023-03-14T11:55:05;15.40;;;2.70;;
22774;SDS011;11554;51.106;3.684;2023-03-14T12:00:03;14.80;;;2.50;;
22774;SDS011;11554;51.106;3.684;2023-03-14T12:05:22;14.80;;;2.50;;
22774;SDS011;11554;51.106;3.684;2023-03-14T12:10:02;12.80;;;2.50;;
22774;SDS011;11554;51.106;3.684;2023-03-14T12:15:01;12.80;;;2.50;;
22774;SDS011;11554;51.106;3.684;2023-03-14T12:20:01;16.70;;;2.90;;
22774;SDS011;11554;51.106;3.684;2023-03-14T12:25:24;16.70;;;2.90;;
22774;SDS011;11554;51.106;3.684;2023-03-14T12:30:01;21.90;;;3.40;;
22774;SDS011;11554;51.106;3.684;2023-03-14T12:35:07;21.90;;;3.40;;
22774;SDS011;11554;51.106;3.684;2023-03-14T12:40:13;21.40;;;3.20;;
22774;SDS011;11554;51.106;3.684;2023-03-14T12:45:14;21.40;;;3.20;;
22774;SDS011;11554;51.106;3.684;2023-03-14T12:50:07;21.00;;;3.70;;
22774;SDS011;11554;51.106;3.684;2023-03-14T12:55:02;21.00;;;3.70;;
22774;SDS011;11554;51.106;3.684;2023-03-14T13:00:02;11.80;;;1.80;;
22774;SDS011;11554;51.106;3.684;2023-03-14T13:05:04;11.80;;;1.80;;
22774;SDS011;11554;51.106;3.684;2023-03-14T13:10:03;16.90;;;2.70;;
22774;SDS011;11554;51.106;3.684;2023-03-14T13:15:01;16.90;;;2.70;;
22774;SDS011;11554;51.106;3.684;2023-03-14T13:20:03;15.60;;;2.50;;
22774;SDS011;11554;51.106;3.684;2023-03-14T13:25:02;15.60;;;2.50;;
22774;SDS011;11554;51.106;3.684;2023-03-14T13:30:12;11.40;;;2.30;;
22774;SDS011;11554;51.106;3.684;2023-03-14T13:35:00;11.40;;;2.30;;
22774;SDS011;11554;51.106;3.684;2023-03-14T13:40:00;11.90;;;1.90;;
22774;SDS011;11554;51.106;3.684;2023-03-14T13:45:00;11.90;;;1.90;;
22774;SDS011;11554;51.106;3.684;2023-03-14T13:50:00;9.40;;;1.60;;
22774;SDS011;11554;51.106;3.684;2023-03-14T13:55:01;9.40;;;1.60;;
22774;SDS011;11554;51.106;3.684;2023-03-14T14:00:02;5.40;;;1.30;;
22774;SDS011;11554;51.106;3.684;2023-03-14T14:05:01;5.40;;;1.30;;
22774;SDS011;11554;51.106;3.684;2023-03-14T14:10:13;5.20;;;0.60;;
22774;SDS011;11554;51.106;3.684;2023-03-14T14:15:03;5.20;;;0.60;;
22774;SDS011;11554;51.106;3.684;2023-03-14T14:20:02;5.70;;;0.80;;
22774;SDS011;11554;51.106;3.684;2023-03-14T14:25:00;5.70;;;0.80;;
22774;SDS011;11554;51.106;3.684;2023-03-14T14:30:03;4.10;;;0.60;;
22774;SDS011;11554;51.106;3.684;2023-03-14T14:35:00;4.10;;;0.60;;
22774;SDS011;11554;51.106;3.684;2023-03-14T14:40:07;3.70;;;0.60;;
22774;SDS011;11554;51.106;3.684;2023-03-14T14:45:02;3.70;;;0.60;;
22774;SDS011;11554;51.106;3.684;2023-03-14T14:50:03;7.20;;;1.10;;
22774;SDS011;11554;51.106;3.684;2023-03-14T14:55:01;7.20;;;1.10;;
22774;SDS011;11554;51.106;3.684;2023-03-14T15:00:02;8.70;;;1.10;;
22774;SDS011;11554;51.106;3.684;2023-03-14T15:05:00;8.70;;;1.10;;
22774;SDS011;11554;51.106;3.684;2023-03-14T15:10:00;7.80;;;1.40;;
22774;SDS011;11554;51.106;3.684;2023-03-14T15:15:04;7.80;;;1.40;;
22774;SDS011;11554;51.106;3.684;2023-03-14T15:20:00;17.10;;;2.30;;
22774;SDS011;11554;51.106;3.684;2023-03-14T15:25:00;17.10;;;2.30;;
22774;SDS011;11554;51.106;3.684;2023-03-14T15:30:00;12.10;;;2.00;;
22774;SDS011;11554;51.106;3.684;2023-03-14T15:35:00;12.10;;;2.00;;
22774;SDS011;11554;51.106;3.684;2023-03-14T15:40:00;11.50;;;2.20;;
22774;SDS011;11554;51.106;3.684;2023-03-14T15:45:00;11.50;;;2.20;;
22774;SDS011;11554;51.106;3.684;2023-03-14T15:50:00;13.20;;;1.80;;
22774;SDS011;11554;51.106;3.684;2023-03-14T15:55:00;13.20;;;1.80;;
22774;SDS011;11554;51.106;3.684;2023-03-14T16:00:00;9.00;;;1.70;;
22774;SDS011;11554;51.106;3.684;2023-03-14T16:05:00;9.00;;;1.70;;
22774;SDS011;11554;51.106;3.684;2023-03-14T16:10:00;11.70;;;1.90;;
22774;SDS011;11554;51.106;3.684;2023-03-14T16:15:02;11.70;;;1.90;;
22774;SDS011;11554;51.106;3.684;2023-03-14T16:20:00;11.50;;;2.00;;
22774;SDS011;11554;51.106;3.684;2023-03-14T16:25:00;11.50;;;2.00;;
22774;SDS011;11554;51.106;3.684;2023-03-14T16:30:00;9.50;;;1.50;;
22774;SDS011;11554;51.106;3.684;2023-03-14T16:35:00;9.50;;;1.50;;
22774;SDS011;11554;51.106;3.684;2023-03-14T16:40:00;13.70;;;2.00;;
22774;SDS011;11554;51.106;3.684;2023-03-14T16:45:00;13.70;;;2.00;;
22774;SDS011;11554;51.106;3.684;2023-03-14T16:50:00;11.70;;;2.00;;
22774;SDS011;11554;51.106;3.684;2023-03-14T16:55:00;11.70;;;2.00;;
22774;SDS011;11554;51.106;3.684;2023-03-14T17:00:00;10.20;;;1.60;;
22774;SDS011;11554;51.106;3.684;2023-03-14T17:05:00;10.20;;;1.60;;
22774;SDS011;11554;51.106;3.684;2023-03-14T17:10:00;15.70;;;2.50;;
22774;SDS011;11554;51.106;3.684;2023-03-14T17:15:00;15.70;;;2.50;;
22774;SDS011;11554;51.106;3.684;2023-03-14T17:20:00;11.60;;;1.90;;
22774;SDS011;11554;51.106;3.684;2023-03-14T17:25:00;11.60;;;1.90;;
22774;SDS011;11554;51.106;3.684;2023-03-14T17:30:00;14.30;;;3.00;;
22774;SDS011;11554;51.106;3.684;2023-03-14T17:35:00;14.30;;;3.00;;
22774;SDS011;11554;51.106;3.684;2023-03-14T17:40:00;14.70;;;3.80;;
22774;SDS011;11554;51.106;3.684;2023-03-14T17:45:00;14.70;;;3.80;;
22774;SDS011;11554;51.106;3.684;2023-03-14T17:50:00;16.40;;;3.20;;
22774;SDS011;11554;51.106;3.684;2023-03-14T17:55:01;16.40;;;3.20;;
22774;SDS011;11554;51.106;3.684;2023-03-14T18:00:00;17.90;;;3.50;;
22774;SDS011;11554;51.106;3.684;2023-03-14T18:05:00;17.90;;;3.50;;
22774;SDS011;11554;51.106;3.684;2023-03-14T18:10:00;21.50;;;3.90;;
22774;SDS011;11554;51.106;3.684;2023-03-14T18:15:00;21.50;;;3.90;;
22774;SDS011;11554;51.106;3.684;2023-03-14T18:20:00;16.80;;;3.80;;
22774;SDS011;11554;51.106;3.684;2023-03-14T18:25:00;16.80;;;3.80;;
22774;SDS011;11554;51.106;3.684;2023-03-14T18:30:00;16.20;;;3.90;;
22774;SDS011;11554;51.106;3.684;2023-03-14T18:35:00;16.20;;;3.90;;
22774;SDS011;11554;51.106;3.684;2023-03-14T18:40:00;15.80;;;4.00;;
22774;SDS011;11554;51.106;3.684;2023-03-14T18:45:00;15.80;;;4.00;;
22774;SDS011;11554;51.106;3.684;2023-03-14T18:50:00;19.60;;;5.90;;
22774;SDS011;11554;51.106;3.684;2023-03-14T18:55:00;19.60;;;5.90;;
22774;SDS011;11554;51.106;3.684;2023-03-14T19:00:00;19.20;;;5.40;;
22774;SDS011;11554;51.106;3.684;2023-03-14T19:05:01;19.20;;;5.40;;
22774;SDS011;11554;51.106;3.684;2023-03-14T19:10:00;18.80;;;4.10;;
22774;SDS011;11554;51.106;3.684;2023-03-14T19:15:00;18.80;;;4.10;;
22774;SDS011;11554;51.106;3.684;2023-03-14T19:20:00;16.50;;;3.90;;
22774;SDS011;11554;51.106;3.684;2023-03-14T19:25:00;16.50;;;3.90;;
22774;SDS011;11554;51.106;3.684;2023-03-14T19:30:00;19.20;;;4.70;;
22774;SDS011;11554;51.106;3.684;2023-03-14T19:35:00;19.20;;;4.70;;
22774;SDS011;11554;51.106;3.684;2023-03-14T19:40:00;10.30;;;2.40;;
22774;SDS011;11554;51.106;3.684;2023-03-14T19:45:00;10.30;;;2.40;;
22774;SDS011;11554;51.106;3.684;2023-03-14T19:50:00;6.50;;;2.10;;
22774;SDS011;11554;51.106;3.684;2023-03-14T19:55:00;6.50;;;2.10;;
22774;SDS011;11554;51.106;3.684;2023-03-14T20:05:00;7.50;;;2.20;;
22774;SDS011;11554;51.106;3.684;2023-03-14T20:10:00;7.40;;;2.60;;
22774;SDS011;11554;51.106;3.684;2023-03-14T20:15:00;7.40;;;2.60;;
22774;SDS011;11554;51.106;3.684;2023-03-14T20:20:00;10.10;;;3.10;;
22774;SDS011;11554;51.106;3.684;2023-03-14T20:25:00;10.10;;;3.10;;
22774;SDS011;11554;51.106;3.684;2023-03-14T20:30:01;7.80;;;2.60;;
22774;SDS011;11554;51.106;3.684;2023-03-14T20:35:00;7.80;;;2.60;;
22774;SDS011;11554;51.106;3.684;2023-03-14T20:40:00;10.20;;;2.60;;
22774;SDS011;11554;51.106;3.684;2023-03-14T20:45:00;10.20;;;2.60;;
22774;SDS011;11554;51.106;3.684;2023-03-14T20:50:00;9.40;;;3.20;;
22774;SDS011;11554;51.106;3.684;2023-03-14T20:55:00;9.40;;;3.20;;
22774;SDS011;11554;51.106;3.684;2023-03-14T21:00:00;12.60;;;4.30;;
22774;SDS011;11554;51.106;3.684;2023-03-14T21:05:00;12.60;;;4.30;;
22774;SDS011;11554;51.106;3.684;2023-03-14T21:10:00;16.70;;;4.20;;
22774;SDS011;11554;51.106;3.684;2023-03-14T21:15:00;16.70;;;4.20;;
22774;SDS011;11554;51.106;3.684;2023-03-14T21:20:00;20.40;;;5.10;;
22774;SDS011;11554;51.106;3.684;2023-03-14T21:25:00;20.40;;;5.10;;
22774;SDS011;11554;51.106;3.684;2023-03-14T21:30:00;16.70;;;5.30;;
22774;SDS011;11554;51.106;3.684;2023-03-14T21:35:00;16.70;;;5.30;;
22774;SDS011;11554;51.106;3.684;2023-03-14T21:40:00;21.80;;;5.90;;
22774;SDS011;11554;51.106;3.684;2023-03-14T21:45:00;21.80;;;5.90;;
22774;SDS011;11554;51.106;3.684;2023-03-14T21:50:00;19.00;;;6.60;;
22774;SDS011;11554;51.106;3.684;2023-03-14T21:55:00;19.00;;;6.60;;
22774;SDS011;11554;51.106;3.684;2023-03-14T22:00:00;16.60;;;7.00;;
22774;SDS011;11554;51.106;3.684;2023-03-14T22:05:00;16.60;;;7.00;;
22774;SDS011;11554;51.106;3.684;2023-03-14T22:10:00;18.70;;;7.10;;
22774;SDS011;11554;51.106;3.684;2023-03-14T22:15:00;18.70;;;7.10;;
22774;SDS011;11554;51.106;3.684;2023-03-14T22:20:01;15.10;;;6.10;;
22774;SDS011;11554;51.106;3.684;2023-03-14T22:25:00;15.10;;;6.10;;
22774;SDS011;11554;51.106;3.684;2023-03-14T22:30:00;10.30;;;4.70;;
22774;SDS011;11554;51.106;3.684;2023-03-14T22:35:00;10.30;;;4.70;;
22774;SDS011;11554;51.106;3.684;2023-03-14T22:40:00;9.30;;;5.50;;
22774;SDS011;11554;51.106;3.684;2023-03-14T22:45:00;9.30;;;5.50;;
22774;SDS011;11554;51.106;3.684;2023-03-14T22:50:00;15.40;;;7.40;;
22774;SDS011;11554;51.106;3.684;2023-03-14T22:55:00;15.40;;;7.40;;
22774;SDS011;11554;51.106;3.684;2023-03-14T23:00:00;15.50;;;7.20;;
22774;SDS011;11554;51.106;3.684;2023-03-14T23:05:00;15.50;;;7.20;;
22774;SDS011;11554;51.106;3.684;2023-03-14T23:10:00;14.90;;;7.10;;
22774;SDS011;11554;51.106;3.684;2023-03-14T23:15:00;14.90;;;7.10;;
22774;SDS011;11554;51.106;3.684;2023-03-14T23:20:00;13.50;;;8.10;;
22774;SDS011;11554;51.106;3.684;2023-03-14T23:25:01;13.50;;;8.10;;
22774;SDS011;11554;51.106;3.684;2023-03-14T23:30:01;14.20;;;6.10;;
22774;SDS011;11554;51.106;3.684;2023-03-14T23:35:00;14.20;;;6.10;;
22774;SDS011;11554;51.106;3.684;2023-03-14T23:40:01;4.00;;;2.00;;
22774;SDS011;11554;51.106;3.684;2023-03-14T23:45:01;4.00;;;2.00;;
22774;SDS011;11554;51.106;3.684;2023-03-14T23:50:00;12.10;;;4.50;;
22774;SDS011;11554;51.106;3.684;2023-03-14T23:55:00;12.10;;;4.50;;
